Time;durP1;ratioP1;P1;durP2;ratioP2;P2;SDS_P1;SDS_P2;PMS_P1;PMS_P2;Temp;Humidity;BMP_temperature;BMP_pressure;BME280_temperature;BME280_humidity;BME280_pressure;Samples;Min_cycle;Max_cycle;Signal;HPM_P1;HPM_P2
2021/07/25 00:00:31;;;;;;;8.15;7.35;;;;;;;19.92;61.05;96345.77;1709620;82;20939;-78
2021/07/25 00:02:58;;;;;;;7.53;6.78;;;;;;;20.02;60.86;96341.97;1746006;81;20926;-78
2021/07/25 00:05:25;;;;;;;9.43;8.13;;;;;;;20.07;59.08;96342.55;1706543;82;20947;-78
2021/07/25 00:07:51;;;;;;;9.15;7.97;;;;;;;20.20;59.80;96342.22;1714824;82;21270;-78
2021/07/25 00:10:17;;;;;;;7.50;6.80;;;;;;;20.26;60.67;96337.80;1714665;83;21251;-78
2021/07/25 00:12:43;;;;;;;8.48;6.90;;;;;;;20.28;60.11;96334.39;1720501;82;21308;-78
2021/07/25 00:15:09;;;;;;;8.68;7.37;;;;;;;20.30;59.26;96336.26;1716429;82;21085;-78
2021/07/25 00:17:35;;;;;;;8.23;7.25;;;;;;;20.34;58.70;96335.55;1686200;83;21320;-78
2021/07/25 00:20:02;;;;;;;8.13;7.33;;;;;;;20.43;58.75;96331.18;1741263;81;20935;-78
2021/07/25 00:22:28;;;;;;;9.13;7.45;;;;;;;20.52;57.65;96325.77;1744017;81;21326;-78
2021/07/25 00:25:07;;;;;;;8.30;7.20;;;;;;;20.62;57.52;96320.59;1742586;81;21020;-78
2021/07/25 00:27:27;;;;;;;8.28;6.87;;;;;;;20.71;57.11;96315.16;1767895;80;21595;-78
2021/07/25 00:29:49;;;;;;;7.37;6.62;;;;;;;20.78;56.57;96313.64;1741284;80;21017;-78
2021/07/25 00:32:15;;;;;;;8.83;7.25;;;;;;;20.86;56.67;96303.45;1747050;80;20920;-79
2021/07/25 00:34:40;;;;;;;8.58;7.65;;;;;;;20.94;56.28;96302.19;1742655;81;20942;-78
2021/07/25 00:37:06;;;;;;;7.50;6.47;;;;;;;20.99;56.96;96299.63;1737805;81;21241;-78
2021/07/25 00:39:32;;;;;;;7.58;6.60;;;;;;;20.97;56.29;96297.73;1671687;81;20982;-78
2021/07/25 00:41:57;;;;;;;14.53;7.70;;;;;;;20.97;56.26;96292.45;1736629;81;20966;-78
2021/07/25 00:44:23;;;;;;;7.83;6.87;;;;;;;21.00;56.13;96288.53;1751518;81;20953;-79
2021/07/25 00:46:58;;;;;;;8.03;7.17;;;;;;;21.01;55.60;96287.48;1740802;80;21368;-78
2021/07/25 00:49:25;;;;;;;7.95;7.03;;;;;;;21.06;55.66;96284.88;1734191;80;22251;-78
2021/07/25 00:51:50;;;;;;;8.70;7.33;;;;;;;21.08;54.47;96288.06;1733603;81;21248;-79
2021/07/25 00:54:16;;;;;;;7.65;6.83;;;;;;;21.15;55.22;96279.41;1738517;81;20931;-79
2021/07/25 00:56:42;;;;;;;7.90;6.90;;;;;;;21.19;55.12;96282.64;1709332;81;21270;-78
2021/07/25 00:59:08;;;;;;;8.18;6.67;;;;;;;21.22;54.80;96282.13;1765578;79;21270;-79
2021/07/25 01:01:33;;;;;;;7.55;6.80;;;;;;;21.21;54.88;96277.89;1741844;81;20998;-78
2021/07/25 01:04:38;;;;;;;8.90;7.75;;;;;;;21.23;54.52;96275.80;1725876;81;20981;-78
2021/07/25 01:07:35;;;;;;;7.70;6.87;;;;;;;21.28;54.18;96282.98;1773513;79;20999;-79
2021/07/25 01:10:19;;;;;;;9.00;7.12;;;;;;;21.30;54.40;96272.16;1762667;80;21285;-79
2021/07/25 01:12:53;;;;;;;8.75;7.17;;;;;;;21.31;53.86;96273.23;1749416;81;20944;-79
2021/07/25 01:15:19;;;;;;;8.48;7.00;;;;;;;21.33;53.22;96271.16;1762991;79;21301;-78
2021/07/25 01:17:45;;;;;;;7.33;6.60;;;;;;;21.40;53.32;96269.09;1715796;81;20994;-79
2021/07/25 01:20:11;;;;;;;8.28;7.05;;;;;;;21.45;53.08;96263.03;1754858;81;21032;-79
2021/07/25 01:22:40;;;;;;;8.40;6.78;;;;;;;21.46;53.27;96258.81;1760742;81;20944;-79
2021/07/25 01:25:08;;;;;;;9.15;6.85;;;;;;;21.45;52.35;96263.03;1766204;80;20924;-78
2021/07/25 01:27:44;;;;;;;8.10;6.22;;;;;;;21.44;53.11;96270.17;1766101;79;20942;-79
2021/07/25 01:30:15;;;;;;;7.42;6.67;;;;;;;21.45;52.16;96268.33;1742123;81;20936;-78
2021/07/25 01:32:42;;;;;;;7.40;6.58;;;;;;;21.46;52.64;96258.02;1735229;81;20932;-78
2021/07/25 01:35:09;;;;;;;9.20;7.25;;;;;;;21.47;51.82;96262.25;1753185;81;20931;-78
2021/07/25 01:37:34;;;;;;;8.35;6.78;;;;;;;21.48;51.82;96265.99;1768530;79;21289;-78
2021/07/25 01:40:20;;;;;;;10.25;6.97;;;;;;;21.51;51.49;96269.45;1760393;79;20883;-78
2021/07/25 01:42:46;;;;;;;9.50;7.25;;;;;;;21.56;52.19;96269.48;1775471;80;20920;-79
2021/07/25 01:45:12;;;;;;;9.10;6.95;;;;;;;21.52;51.64;96274.20;1771182;80;21013;-78
2021/07/25 01:47:39;;;;;;;7.55;6.75;;;;;;;21.52;51.60;96280.30;1750325;81;20968;-78
2021/07/25 01:50:05;;;;;;;7.60;6.47;;;;;;;21.50;51.90;96286.88;1759252;81;20989;-78
2021/07/25 01:52:31;;;;;;;8.50;6.80;;;;;;;21.45;51.63;96285.50;1778577;80;20993;-78
2021/07/25 01:54:57;;;;;;;7.12;6.28;;;;;;;21.42;51.83;96280.20;1753025;81;20982;-78
2021/07/25 01:57:23;;;;;;;8.98;8.08;;;;;;;21.40;51.44;96273.05;1754553;79;21258;-78
2021/07/25 01:59:48;;;;;;;7.80;7.00;;;;;;;21.39;50.88;96265.38;1762310;79;20953;-78
2021/07/25 02:02:14;;;;;;;7.65;6.83;;;;;;;21.43;50.89;96255.89;1772006;79;20982;-79
2021/07/25 02:04:40;;;;;;;8.50;6.83;;;;;;;21.45;50.94;96252.46;1769542;79;21452;-78
2021/07/25 02:07:06;;;;;;;7.62;6.72;;;;;;;21.43;52.01;96251.92;1757758;79;20999;-79
2021/07/25 02:09:38;;;;;;;7.72;6.20;;;;;;;21.38;51.22;96250.57;1770393;80;21378;-78
2021/07/25 02:12:08;;;;;;;7.25;6.47;;;;;;;21.34;52.38;96254.25;1737415;81;20911;-79
2021/07/25 02:14:35;;;;;;;8.08;6.95;;;;;;;21.27;51.06;96257.61;1766755;79;21378;-78
2021/07/25 02:17:01;;;;;;;10.43;7.05;;;;;;;21.27;51.02;96252.33;1754763;80;21064;-78
2021/07/25 02:19:27;;;;;;;7.03;5.62;;;;;;;21.26;51.71;96251.53;1767527;80;21008;-78
2021/07/25 02:21:53;;;;;;;7.30;6.60;;;;;;;21.26;51.27;96258.14;1763359;79;20913;-78
2021/07/25 02:24:20;;;;;;;8.33;6.85;;;;;;;21.23;51.55;96258.62;1770145;79;21249;-78
2021/07/25 02:26:49;;;;;;;7.78;6.28;;;;;;;21.21;51.92;96263.88;1766157;79;21022;-78
2021/07/25 02:29:14;;;;;;;7.60;6.22;;;;;;;21.18;51.23;96262.55;1765388;79;20996;-78
2021/07/25 02:31:40;;;;;;;7.95;7.15;;;;;;;21.20;51.24;96257.80;1761217;79;20956;-78
2021/07/25 02:34:06;;;;;;;7.40;6.35;;;;;;;21.23;51.02;96265.75;1775914;79;22246;-78
2021/07/25 02:36:31;;;;;;;7.40;5.92;;;;;;;21.25;50.85;96257.87;1777526;80;20978;-79
2021/07/25 02:38:57;;;;;;;7.35;6.10;;;;;;;21.20;51.52;96250.41;1761274;81;20957;-79
2021/07/25 02:41:23;;;;;;;7.53;6.72;;;;;;;21.21;51.46;96269.17;1745808;80;20900;-79
2021/07/25 02:43:49;;;;;;;8.48;6.10;;;;;;;21.20;51.30;96268.90;1757605;81;20931;-78
2021/07/25 02:46:14;;;;;;;7.60;6.75;;;;;;;21.22;50.90;96262.31;1770173;79;20987;-78
2021/07/25 02:48:40;;;;;;;7.55;6.60;;;;;;;21.25;50.65;96267.64;1751621;79;20904;-78
2021/07/25 02:51:06;;;;;;;8.30;6.80;;;;;;;21.28;50.80;96261.33;1750804;81;20971;-78
2021/07/25 02:53:31;;;;;;;7.83;6.33;;;;;;;21.31;51.02;96265.30;1724722;80;20935;-79
2021/07/25 02:55:57;;;;;;;6.90;6.20;;;;;;;21.29;51.46;96262.12;1750681;80;20923;-78
2021/07/25 02:58:23;;;;;;;7.87;6.97;;;;;;;21.25;51.52;96263.68;1758103;80;20922;-78
2021/07/25 03:00:48;;;;;;;7.53;6.62;;;;;;;21.25;51.10;96267.64;1767921;79;21227;-78
2021/07/25 03:03:14;;;;;;;7.08;6.33;;;;;;;21.30;50.80;96265.56;1776968;79;20939;-78
2021/07/25 03:05:40;;;;;;;10.88;6.67;;;;;;;21.32;51.09;96265.60;1767064;79;20991;-78
2021/07/25 03:08:07;;;;;;;7.25;6.10;;;;;;;21.35;50.63;96264.30;1772299;80;21059;-78
2021/07/25 03:10:33;;;;;;;6.75;6.05;;;;;;;21.35;51.29;96263.77;1745512;81;21854;-78
2021/07/25 03:12:58;;;;;;;6.80;6.20;;;;;;;21.35;50.77;96261.66;1768137;80;21081;-79
2021/07/25 03:15:24;;;;;;;7.72;6.70;;;;;;;21.33;51.29;96266.40;1760482;80;21011;-78
2021/07/25 03:17:52;;;;;;;7.80;6.50;;;;;;;21.28;51.01;96267.13;1767654;79;20995;-78
2021/07/25 03:20:18;;;;;;;7.55;6.75;;;;;;;21.31;51.30;96271.11;1758008;80;20992;-78
2021/07/25 03:22:44;;;;;;;7.15;5.83;;;;;;;21.30;50.39;96269.00;1761600;80;20968;-78
2021/07/25 03:25:11;;;;;;;7.03;6.33;;;;;;;21.34;50.78;96274.59;1767283;79;21316;-78
2021/07/25 03:27:37;;;;;;;6.85;5.80;;;;;;;21.36;50.94;96265.36;1746691;81;21058;-79
2021/07/25 03:30:05;;;;;;;6.40;5.80;;;;;;;21.35;50.93;96255.84;1705940;82;21206;-78
2021/07/25 03:32:31;;;;;;;6.97;6.12;;;;;;;21.36;50.65;96266.69;1716450;82;20988;-78
2021/07/25 03:34:57;;;;;;;7.55;6.20;;;;;;;21.36;50.96;96266.69;1706470;83;21523;-78
2021/07/25 03:37:23;;;;;;;8.43;6.62;;;;;;;21.36;51.02;96268.53;1675475;83;20940;-78
2021/07/25 03:39:52;;;;;;;7.70;5.92;;;;;;;21.35;51.19;96271.70;1733392;81;20934;-79
2021/07/25 03:42:16;;;;;;;6.53;5.83;;;;;;;21.35;51.21;96268.27;1721760;81;20947;-78
2021/07/25 03:44:42;;;;;;;7.62;6.10;;;;;;;21.34;51.19;96266.67;1720555;82;20957;-78
2021/07/25 03:47:08;;;;;;;7.15;6.15;;;;;;;21.36;50.99;96268.01;1716869;82;21846;-78
2021/07/25 03:49:34;;;;;;;7.75;6.95;;;;;;;21.41;50.71;96259.31;1716887;82;22035;-78
2021/07/25 03:52:00;;;;;;;7.42;6.25;;;;;;;21.44;51.34;96274.66;1727674;81;20981;-78
2021/07/25 03:54:25;;;;;;;7.25;6.12;;;;;;;21.47;50.84;96267.02;1695738;82;20959;-78
2021/07/25 03:56:51;;;;;;;6.90;6.12;;;;;;;21.50;50.94;96265.73;1736283;81;21463;-78
2021/07/25 03:59:17;;;;;;;6.85;6.00;;;;;;;21.49;51.34;96264.94;1713632;82;21021;-78
2021/07/25 04:01:43;;;;;;;7.67;6.08;;;;;;;21.50;50.87;96263.89;1711852;82;21009;-78
2021/07/25 04:04:09;;;;;;;8.10;6.60;;;;;;;21.48;51.57;96257.27;1725242;81;21891;-78
2021/07/25 04:06:35;;;;;;;7.42;6.70;;;;;;;21.51;51.23;96262.84;1753230;81;21072;-78
2021/07/25 04:09:01;;;;;;;6.72;6.12;;;;;;;21.53;50.74;96263.38;1738740;81;21343;-78
2021/07/25 04:11:26;;;;;;;7.55;5.72;;;;;;;21.55;51.23;96257.31;1731392;81;21060;-78
2021/07/25 04:13:52;;;;;;;7.78;6.90;;;;;;;21.55;51.21;96251.22;1737037;81;21046;-78
2021/07/25 04:16:18;;;;;;;6.83;6.22;;;;;;;21.56;51.37;96247.00;1730658;81;21075;-78
2021/07/25 04:18:44;;;;;;;7.65;6.80;;;;;;;21.57;52.04;96261.02;1726956;81;20990;-78
2021/07/25 04:21:09;;;;;;;7.95;6.58;;;;;;;21.49;52.71;96246.44;1718769;82;21273;-78
2021/07/25 04:23:40;;;;;;;9.28;6.30;;;;;;;21.54;51.96;96258.36;1719180;82;20990;-78
2021/07/25 04:26:07;;;;;;;7.87;7.03;;;;;;;21.54;52.81;96254.39;1720808;82;20919;-78
2021/07/25 04:28:34;;;;;;;7.80;7.10;;;;;;;21.54;52.51;96242.50;1762520;80;20956;-78
2021/07/25 04:31:01;;;;;;;10.63;6.60;;;;;;;21.58;52.14;96247.54;1769858;80;20920;-78
2021/07/25 04:33:27;;;;;;;8.10;6.75;;;;;;;21.64;52.55;96246.24;1756544;80;20937;-78
2021/07/25 04:35:54;;;;;;;8.35;7.17;;;;;;;21.65;53.13;96247.87;1766901;80;20921;-77
2021/07/25 04:38:21;;;;;;;7.75;6.95;;;;;;;21.62;54.33;96245.17;1744104;80;20963;-78
2021/07/25 04:41:00;;;;;;;7.97;7.17;;;;;;;21.51;55.48;96237.73;1759244;79;20925;-78
2021/07/25 04:43:29;;;;;;;7.78;6.97;;;;;;;21.30;56.89;96239.92;1737989;81;21008;-78
2021/07/25 04:46:03;;;;;;;8.40;7.60;;;;;;;21.18;56.66;96248.54;1749524;81;21047;-78
2021/07/25 04:48:48;;;;;;;7.92;6.75;;;;;;;21.13;57.52;96255.08;1740857;81;20957;-78
2021/07/25 04:51:15;;;;;;;9.53;7.33;;;;;;;21.09;57.11;96246.07;1748786;81;21013;-78
2021/07/25 04:53:42;;;;;;;7.80;7.10;;;;;;;21.08;57.47;96249.77;1745015;81;21417;-77
2021/07/25 04:56:13;;;;;;;8.25;7.37;;;;;;;21.07;57.55;96252.13;1772211;80;20934;-78
2021/07/25 04:58:51;;;;;;;9.43;7.22;;;;;;;21.04;58.22;96252.11;1767790;80;20939;-77
2021/07/25 05:01:24;;;;;;;9.00;8.00;;;;;;;20.98;56.39;96248.61;1756501;79;20945;-77
2021/07/25 05:03:51;;;;;;;8.20;7.22;;;;;;;21.08;56.25;96253.72;1762531;80;20931;-77
2021/07/25 05:06:17;;;;;;;7.90;6.90;;;;;;;21.14;55.59;96254.83;1770389;80;20959;-77
2021/07/25 05:08:44;;;;;;;7.95;7.15;;;;;;;21.26;56.09;96259.98;1764231;79;20960;-78
2021/07/25 05:11:21;;;;;;;8.30;7.53;;;;;;;21.35;55.86;96257.16;1765687;80;20931;-78
2021/07/25 05:13:50;;;;;;;9.38;7.08;;;;;;;21.36;57.88;96252.67;1757580;80;20923;-78
2021/07/25 05:16:36;;;;;;;8.65;7.80;;;;;;;21.40;56.09;96249.80;1728570;80;21053;-77
2021/07/25 05:19:23;;;;;;;8.20;7.40;;;;;;;21.53;56.18;96254.12;1771757;79;20946;-78
2021/07/25 05:22:03;;;;;;;8.88;7.97;;;;;;;21.70;55.06;96259.79;1742751;81;21831;-78
2021/07/25 05:24:28;;;;;;;11.20;8.08;;;;;;;21.87;54.84;96260.42;1744785;80;20994;-78
2021/07/25 05:26:55;;;;;;;8.65;7.85;;;;;;;21.98;54.72;96262.08;1730946;80;21000;-78
2021/07/25 05:29:21;;;;;;;9.80;8.20;;;;;;;22.10;54.15;96262.68;1742110;81;21305;-78
2021/07/25 05:31:47;;;;;;;9.15;8.35;;;;;;;22.24;53.49;96263.02;1755081;80;20990;-77
2021/07/25 05:34:12;;;;;;;8.50;7.08;;;;;;;22.34;53.44;96266.24;1763165;80;20908;-77
2021/07/25 05:36:38;;;;;;;8.98;7.72;;;;;;;22.44;52.32;96272.88;1743811;79;20993;-78
2021/07/25 05:39:04;;;;;;;8.93;7.90;;;;;;;22.54;52.25;96265.52;1755283;81;20908;-78
2021/07/25 05:41:30;;;;;;;8.95;7.83;;;;;;;22.62;52.09;96269.00;1735643;81;21282;-77
2021/07/25 05:43:56;;;;;;;8.15;7.05;;;;;;;22.68;52.43;96271.39;1728031;81;21016;-77
2021/07/25 05:46:22;;;;;;;7.47;6.78;;;;;;;22.72;51.97;96259.20;1777750;80;21336;-77
2021/07/25 05:48:49;;;;;;;10.60;8.40;;;;;;;22.77;51.46;96268.48;1742795;80;20916;-78
2021/07/25 05:51:15;;;;;;;8.13;7.05;;;;;;;22.85;51.42;96269.87;1763794;79;21303;-78
2021/07/25 05:53:40;;;;;;;9.55;7.35;;;;;;;22.91;51.71;96270.66;1757835;79;20947;-77
2021/07/25 05:56:06;;;;;;;8.68;7.87;;;;;;;22.98;51.22;96272.55;1757721;81;20903;-78
2021/07/25 05:58:32;;;;;;;8.38;7.62;;;;;;;23.03;51.17;96275.20;1765524;79;21915;-78
2021/07/25 06:00:58;;;;;;;10.25;7.78;;;;;;;23.08;51.03;96275.72;1758589;79;20912;-78
2021/07/25 06:03:23;;;;;;;8.88;7.50;;;;;;;23.11;50.28;96273.37;1792438;80;21011;-78
2021/07/25 06:05:49;;;;;;;8.35;7.45;;;;;;;23.13;49.90;96273.10;1758770;79;21023;-78
2021/07/25 06:08:15;;;;;;;9.20;8.05;;;;;;;23.15;50.35;96273.63;1762351;79;21233;-77
2021/07/25 06:10:42;;;;;;;11.18;10.08;;;;;;;23.16;51.09;96274.69;1739168;81;20943;-78
2021/07/25 06:13:09;;;;;;;9.30;8.40;;;;;;;23.17;50.67;96274.16;1769875;80;20979;-78
2021/07/25 06:15:35;;;;;;;10.03;9.03;;;;;;;23.21;50.11;96273.89;1767874;79;21301;-78
2021/07/25 06:18:02;;;;;;;8.18;7.37;;;;;;;23.27;50.27;96272.85;1768383;79;20949;-77
2021/07/25 06:20:29;;;;;;;10.15;9.25;;;;;;;23.34;49.64;96269.39;1758648;79;21347;-78
2021/07/25 06:22:55;;;;;;;8.70;7.90;;;;;;;23.46;49.69;96278.41;1780383;79;20993;-78
2021/07/25 06:25:26;;;;;;;8.95;8.10;;;;;;;23.53;49.00;96271.77;1784277;80;20987;-78
2021/07/25 06:27:55;;;;;;;7.90;7.10;;;;;;;23.59;49.30;96279.21;1764365;80;21281;-78
2021/07/25 06:30:23;;;;;;;10.00;8.13;;;;;;;23.61;48.85;96277.11;1742859;81;20998;-78
2021/07/25 06:33:05;;;;;;;8.53;7.72;;;;;;;23.65;47.73;96283.47;1740116;81;21386;-78
2021/07/25 06:35:32;;;;;;;;;;;;;;;23.68;48.69;96279.48;1736505;81;21049;-78
2021/07/25 06:38:00;;;;;;;8.38;7.08;;;;;;;23.73;48.72;96284.23;1728441;81;20118;-78
2021/07/25 06:40:27;;;;;;;8.15;7.37;;;;;;;23.73;47.68;96281.59;1718569;81;21285;-78
2021/07/25 06:42:54;;;;;;;8.38;7.58;;;;;;;23.74;48.41;96283.70;1738471;81;20961;-77
2021/07/25 06:45:20;;;;;;;8.73;7.80;;;;;;;23.75;47.94;96276.80;1718790;82;20978;-77
2021/07/25 06:47:50;;;;;;;8.43;7.72;;;;;;;23.80;48.35;96282.66;1731684;81;21333;-77
2021/07/25 06:50:20;;;;;;;8.15;7.45;;;;;;;23.84;47.92;96287.16;1727066;81;20944;-78
2021/07/25 06:52:49;;;;;;;8.28;7.45;;;;;;;23.87;47.57;96289.80;1729517;81;20980;-78
2021/07/25 06:55:14;;;;;;;7.95;7.20;;;;;;;23.89;47.69;96284.48;1735486;82;20969;-78
2021/07/25 06:57:40;;;;;;;8.48;7.60;;;;;;;23.93;47.35;96287.42;1743909;81;21038;-78
2021/07/25 07:00:07;;;;;;;8.58;7.67;;;;;;;23.97;47.86;96274.41;1729744;81;21287;-77
2021/07/25 07:02:53;;;;;;;7.42;6.72;;;;;;;24.02;47.77;96286.32;1735245;81;21249;-77
2021/07/25 07:05:25;;;;;;;9.43;7.05;;;;;;;24.06;47.17;96290.81;1738005;81;20912;-77
2021/07/25 07:07:54;;;;;;;7.75;7.05;;;;;;;24.09;47.61;96285.53;1729053;81;21010;-77
2021/07/25 07:10:24;;;;;;;8.53;7.45;;;;;;;24.12;47.15;96284.45;1741998;81;20975;-77
2021/07/25 07:12:52;;;;;;;8.40;7.58;;;;;;;24.18;47.16;96281.23;1759482;81;21068;-77
2021/07/25 07:15:19;;;;;;;7.90;7.12;;;;;;;24.24;47.02;96285.45;1753245;81;20980;-78
2021/07/25 07:17:47;;;;;;;7.65;6.92;;;;;;;24.29;47.36;96289.47;1753842;81;21400;-78
2021/07/25 07:20:12;;;;;;;8.90;8.00;;;;;;;24.35;47.31;96278.29;1708370;82;21006;-78
2021/07/25 07:22:38;;;;;;;9.85;7.80;;;;;;;24.46;47.94;96288.61;1741325;81;20980;-78
2021/07/25 07:25:06;;;;;;;7.80;7.10;;;;;;;24.56;46.70;96289.08;1733789;81;20981;-79
2021/07/25 07:27:32;;;;;;;8.10;7.30;;;;;;;24.67;48.02;96291.16;1755627;81;20980;-79
2021/07/25 07:29:59;;;;;;;9.15;8.35;;;;;;;24.73;46.75;96298.03;1740131;81;20935;-79
2021/07/25 07:32:25;;;;;;;8.30;7.50;;;;;;;24.75;46.86;96302.56;1762340;79;20983;-79
2021/07/25 07:34:50;;;;;;;8.20;7.12;;;;;;;24.75;46.81;96302.03;1691735;81;21256;-79
2021/07/25 07:37:16;;;;;;;9.00;8.10;;;;;;;24.72;47.70;96299.90;1762130;80;20917;-79
2021/07/25 07:39:42;;;;;;;9.10;8.18;;;;;;;24.72;47.69;96305.75;1763358;79;20931;-78
2021/07/25 07:42:09;;;;;;;8.80;7.90;;;;;;;24.74;46.87;96311.61;1778412;80;21320;-79
2021/07/25 07:44:35;;;;;;;8.13;7.33;;;;;;;24.69;47.21;96312.94;1785150;80;20919;-79
2021/07/25 07:47:01;;;;;;;8.85;7.87;;;;;;;24.66;46.68;96312.16;1792058;79;20973;-79
2021/07/25 07:49:26;;;;;;;23.10;16.12;;;;;;;24.60;47.30;96320.70;1770856;79;21876;-79
2021/07/25 07:51:52;;;;;;;8.68;7.85;;;;;;;24.48;46.49;96323.66;1770611;80;20974;-79
2021/07/25 07:54:18;;;;;;;8.43;7.62;;;;;;;24.48;46.49;96323.66;1773549;79;20892;-79
2021/07/25 07:56:44;;;;;;;11.93;10.48;;;;;;;24.44;47.37;96330.58;1773415;80;20966;-79
2021/07/25 07:59:09;;;;;;;9.95;8.95;;;;;;;24.43;47.86;96323.68;1773427;80;20980;-79
2021/07/25 08:01:35;;;;;;;8.85;8.03;;;;;;;24.40;48.08;96326.06;1773496;79;21201;-79
2021/07/25 08:04:01;;;;;;;11.57;10.38;;;;;;;24.41;47.76;96326.35;1761349;81;20947;-79
2021/07/25 08:06:27;;;;;;;9.55;8.55;;;;;;;24.38;48.11;96331.64;1764571;80;20955;-78
2021/07/25 08:08:53;;;;;;;9.53;8.55;;;;;;;24.34;48.60;96334.58;1772675;80;20947;-78
2021/07/25 08:11:18;;;;;;;8.68;7.92;;;;;;;24.32;49.02;96335.92;1767204;79;20973;-79
2021/07/25 08:13:45;;;;;;;9.38;8.25;;;;;;;24.29;49.95;96345.73;1773233;80;21020;-79
2021/07/25 08:16:11;;;;;;;8.18;7.40;;;;;;;24.21;50.71;96341.22;1787765;79;20944;-79
2021/07/25 08:18:37;;;;;;;9.05;8.15;;;;;;;24.19;49.62;96351.84;1763449;79;21917;-79
2021/07/25 08:21:03;;;;;;;11.10;9.93;;;;;;;24.16;49.53;96352.39;1770968;79;20965;-79
2021/07/25 08:23:29;;;;;;;9.98;9.05;;;;;;;24.13;49.59;96352.39;1772063;80;20995;-79
2021/07/25 08:25:55;;;;;;;10.10;9.10;;;;;;;24.12;49.52;96356.65;1756657;80;21358;-79
2021/07/25 08:28:21;;;;;;;11.18;10.13;;;;;;;24.12;50.28;96353.47;1731072;81;21298;-79
2021/07/25 08:30:47;;;;;;;10.35;9.28;;;;;;;24.10;49.22;96358.25;1721366;81;20968;-79
2021/07/25 08:33:12;;;;;;;10.80;9.78;;;;;;;24.11;49.09;96354.53;1710885;82;20948;-81
2021/07/25 08:35:38;;;;;;;11.15;10.15;;;;;;;24.11;49.30;96361.70;1750436;82;20928;-78
2021/07/25 08:38:04;;;;;;;11.00;9.90;;;;;;;24.10;49.85;96366.21;1715603;82;21266;-79
2021/07/25 08:40:31;;;;;;;10.50;9.50;;;;;;;24.11;50.12;96365.68;1706132;82;20952;-78
2021/07/25 08:43:05;;;;;;;10.20;9.30;;;;;;;24.09;50.09;96371.79;1751459;81;20972;-79
2021/07/25 08:45:39;;;;;;;11.30;10.30;;;;;;;24.04;49.71;96369.91;1739786;82;21031;-79
2021/07/25 08:48:16;;;;;;;11.18;10.00;;;;;;;24.01;49.99;96377.62;1750133;80;20986;-79
2021/07/25 08:50:44;;;;;;;11.55;10.38;;;;;;;23.97;50.28;96371.27;1753443;82;21286;-79
2021/07/25 08:53:17;;;;;;;10.70;9.63;;;;;;;23.94;50.05;96381.35;1744992;82;20951;-79
2021/07/25 08:55:44;;;;;;;10.93;9.93;;;;;;;23.91;49.86;96383.19;1724274;82;20902;-79
2021/07/25 08:58:18;;;;;;;10.85;9.85;;;;;;;23.89;49.54;96385.31;1714070;82;20983;-79
2021/07/25 09:00:44;;;;;;;10.98;9.98;;;;;;;23.86;49.33;96383.73;1713939;82;20974;-79
2021/07/25 09:03:10;;;;;;;11.68;10.32;;;;;;;23.90;49.43;96384.25;1708438;82;20983;-79
2021/07/25 09:05:36;;;;;;;12.23;10.60;;;;;;;23.91;49.87;96384.52;1745592;81;20932;-79
2021/07/25 09:08:05;;;;;;;11.12;10.03;;;;;;;23.89;50.22;96378.68;1739925;81;21250;-79
2021/07/25 09:10:31;;;;;;;12.05;10.78;;;;;;;23.89;50.00;96390.62;1749747;81;21245;-79
2021/07/25 09:12:58;;;;;;;11.18;10.15;;;;;;;23.86;51.08;96389.03;1748075;80;21026;-79
2021/07/25 09:15:30;;;;;;;11.35;10.35;;;;;;;23.84;51.55;96391.16;1752577;82;21257;-79
2021/07/25 09:17:58;;;;;;;11.30;10.20;;;;;;;23.80;52.40;96392.77;1731208;82;20996;-79
2021/07/25 09:20:30;;;;;;;10.90;9.80;;;;;;;23.75;52.03;96397.52;1709648;82;20991;-78
2021/07/25 09:22:58;;;;;;;;;;;;;;;23.70;51.96;96396.19;1758896;80;20901;-79
2021/07/25 09:25:29;;;;;;;10.93;9.93;;;;;;;23.65;52.27;96395.67;1765248;80;20297;-78
2021/07/25 09:28:03;;;;;;;11.53;10.45;;;;;;;23.64;52.93;96402.03;1754260;80;21024;-78
2021/07/25 09:30:30;;;;;;;11.18;10.18;;;;;;;23.63;53.48;96395.67;1754447;81;21539;-80
2021/07/25 09:32:57;;;;;;;11.08;9.98;;;;;;;23.59;54.07;96405.19;1748010;80;20916;-77
2021/07/25 09:35:30;;;;;;;12.13;11.03;;;;;;;23.54;52.04;96405.16;1753288;80;20904;-79
2021/07/25 09:38:03;;;;;;;10.95;9.60;;;;;;;23.54;54.05;96412.59;1739258;81;21014;-79
2021/07/25 09:40:32;;;;;;;10.50;9.53;;;;;;;23.55;53.29;96404.89;1745100;80;21400;-79
2021/07/25 09:43:21;;;;;;;11.10;10.10;;;;;;;23.54;53.17;96405.95;1738688;80;20933;-78
2021/07/25 09:45:54;;;;;;;10.48;9.48;;;;;;;23.51;52.92;96410.47;1750655;79;20971;-78
2021/07/25 09:48:30;;;;;;;10.75;9.75;;;;;;;23.53;53.49;96416.30;1735458;81;21379;-78
2021/07/25 09:50:59;;;;;;;11.57;10.58;;;;;;;23.48;53.69;96414.97;1751518;81;20915;-78
2021/07/25 09:53:24;;;;;;;11.85;10.85;;;;;;;23.38;54.48;96413.62;1762226;80;20920;-79
2021/07/25 09:55:52;;;;;;;11.05;9.95;;;;;;;23.35;53.59;96421.57;1717118;81;20939;-78
2021/07/25 09:58:33;;;;;;;12.13;10.98;;;;;;;23.30;53.75;96424.75;1724380;82;20923;-78
2021/07/25 10:00:59;;;;;;;12.43;11.30;;;;;;;23.25;53.18;96410.92;1738634;80;20933;-78
2021/07/25 10:03:25;;;;;;;12.15;10.90;;;;;;;23.18;53.95;96424.97;1737460;81;20924;-78
2021/07/25 10:05:51;;;;;;;12.82;11.63;;;;;;;23.11;53.39;96432.91;1766812;79;21028;-78
2021/07/25 10:08:20;;;;;;;13.53;12.20;;;;;;;23.03;53.87;96433.66;1767710;80;21079;-78
2021/07/25 10:10:48;;;;;;;11.25;10.32;;;;;;;22.91;54.51;96427.77;1771328;79;21010;-79
2021/07/25 10:13:17;;;;;;;12.05;10.95;;;;;;;22.77;54.48;96439.33;1776396;80;20995;-78
2021/07/25 10:15:56;;;;;;;13.20;12.00;;;;;;;22.61;55.44;96436.33;1776581;79;20950;-77
2021/07/25 10:18:22;;;;;;;12.70;11.57;;;;;;;22.40;55.71;96431.97;1775188;79;20994;-78
2021/07/25 10:20:57;;;;;;;12.98;11.68;;;;;;;22.25;56.48;96431.34;1767504;80;20962;-78
2021/07/25 10:23:37;;;;;;;13.85;11.93;;;;;;;22.10;57.20;96433.34;1783230;80;20892;-77
2021/07/25 10:26:03;;;;;;;13.88;12.63;;;;;;;21.91;57.90;96428.67;1763350;80;21029;-77
2021/07/25 10:28:31;;;;;;;13.10;11.90;;;;;;;21.80;58.58;96436.53;1754362;81;20974;-78
2021/07/25 10:30:59;;;;;;;13.13;11.93;;;;;;;21.67;58.87;96429.00;1755538;80;20936;-78
2021/07/25 10:33:25;;;;;;;12.07;10.88;;;;;;;21.51;59.76;96432.55;1764707;79;21194;-78
2021/07/25 10:35:51;;;;;;;12.78;11.68;;;;;;;21.37;60.37;96440.07;1771781;79;21024;-77
2021/07/25 10:38:17;;;;;;;12.75;11.55;;;;;;;21.24;60.75;96420.11;1794050;80;20919;-77
2021/07/25 10:40:43;;;;;;;13.60;12.35;;;;;;;21.11;61.05;96420.98;1774632;79;21233;-77
2021/07/25 10:43:11;;;;;;;14.43;13.03;;;;;;;21.01;62.10;96428.80;1754858;80;20949;-78
2021/07/25 10:45:37;;;;;;;11.97;10.88;;;;;;;20.88;62.84;96436.05;1740779;81;20960;-77
2021/07/25 10:48:15;;;;;;;13.53;12.13;;;;;;;20.72;63.90;96428.17;1746485;81;21021;-77
2021/07/25 10:50:42;;;;;;;13.60;12.35;;;;;;;20.63;63.67;96425.14;1773470;80;21322;-77
2021/07/25 10:53:07;;;;;;;13.05;11.75;;;;;;;20.51;64.42;96435.03;1774168;80;21253;-77
2021/07/25 10:55:43;;;;;;;13.58;12.35;;;;;;;20.41;65.27;96442.27;1706645;80;20954;-77
2021/07/25 10:58:17;;;;;;;12.20;11.00;;;;;;;20.29;65.32;96443.64;1772582;80;20975;-77
2021/07/25 11:00:52;;;;;;;11.73;10.63;;;;;;;20.16;65.71;96447.92;1774061;80;20944;-77
2021/07/25 11:03:34;;;;;;;11.30;9.50;;;;;;;20.05;66.20;96438.27;1773189;80;20883;-78
2021/07/25 11:06:07;;;;;;;9.75;8.85;;;;;;;19.96;67.37;96450.23;1759289;80;21277;-80
2021/07/25 11:08:34;;;;;;;9.08;8.20;;;;;;;19.89;66.09;96444.34;1759746;80;21303;-78
2021/07/25 11:11:00;;;;;;;9.58;8.68;;;;;;;19.79;66.22;96440.48;1739823;81;20949;-77
2021/07/25 11:13:40;;;;;;;8.65;7.58;;;;;;;19.72;65.98;96444.31;1774430;80;20978;-78
2021/07/25 11:16:30;;;;;;;9.70;8.80;;;;;;;19.64;67.03;96436.27;1776968;80;20880;-77
2021/07/25 11:18:57;;;;;;;8.93;7.95;;;;;;;19.49;67.26;96422.27;1734836;82;21004;-77
2021/07/25 11:21:36;;;;;;;7.90;7.20;;;;;;;19.37;68.74;96427.33;1753291;81;20906;-77
2021/07/25 11:24:23;;;;;;;8.88;7.10;;;;;;;19.25;66.89;96427.89;1743379;81;20981;-77
2021/07/25 11:26:50;;;;;;;11.18;8.50;;;;;;;19.13;68.37;96396.31;1732940;79;21022;-78
2021/07/25 11:29:18;;;;;;;8.80;7.90;;;;;;;18.93;69.49;96417.80;1755174;80;21308;-77
2021/07/25 11:31:47;;;;;;;10.45;9.00;;;;;;;18.82;70.75;96419.41;1750951;80;20917;-77
2021/07/25 11:34:16;;;;;;;8.98;8.18;;;;;;;18.72;69.31;96402.63;1749424;80;21860;-76